createdAt,value
2023-05-15T00:00:12.034Z,97.63
2023-05-15T00:04:14.712Z,96.48
2023-05-15T00:08:18.791Z,96.82
2023-05-15T00:12:21.367Z,99.41
2023-05-15T00:16:24.014Z,97.18
2023-05-15T00:20:26.662Z,100.00
2023-05-15T00:24:30.633Z,100.00
2023-05-15T00:28:33.309Z,100.00
2023-05-15T00:32:35.995Z,98.05
2023-05-15T00:36:38.668Z,97.29
2023-05-15T00:40:43.583Z,96.13
2023-05-15T00:44:46.727Z,99.54
2023-05-15T00:48:51.602Z,100.00
2023-05-15T00:52:54.272Z,100.00
2023-05-15T00:56:58.534Z,99.20
2023-05-15T01:01:01.247Z,97.33
2023-05-15T01:05:04.923Z,99.81
2023-05-15T01:09:08.370Z,99.56
2023-05-15T01:13:12.881Z,99.44
2023-05-15T01:17:15.521Z,99.99
2023-05-15T01:21:28.941Z,98.92
2023-05-15T01:25:55.066Z,97.80
2023-05-15T01:30:01.882Z,99.99
2023-05-15T01:34:05.023Z,100.00
2023-05-15T01:38:16.956Z,99.80
2023-05-15T01:42:20.660Z,98.99
2023-05-15T01:46:24.655Z,100.00
2023-05-15T01:50:27.911Z,99.88
2023-05-15T01:54:30.984Z,100.00
2023-05-15T01:58:33.569Z,100.00
2023-05-15T02:02:37.913Z,97.98
2023-05-15T02:06:40.909Z,100.00
2023-05-15T02:10:44.186Z,100.00
2023-05-15T02:14:48.019Z,100.00
2023-05-15T02:18:52.633Z,99.31
2023-05-15T02:22:55.446Z,99.86
2023-05-15T02:27:03.392Z,100.00
2023-05-15T02:31:09.770Z,100.00
2023-05-15T02:35:19.675Z,99.83
2023-05-15T02:39:23.585Z,99.72
2023-05-15T02:43:27.376Z,100.00
2023-05-15T02:47:30.805Z,99.87
2023-05-15T02:51:34.912Z,100.00
2023-05-15T02:55:38.600Z,100.00
2023-05-15T02:59:41.397Z,100.00
2023-05-15T03:03:44.029Z,100.00
2023-05-15T03:07:48.106Z,100.00
2023-05-15T03:11:50.710Z,100.00
2023-05-15T03:15:53.668Z,100.00
2023-05-15T03:19:56.407Z,100.00
2023-05-15T03:24:00.442Z,100.00
2023-05-15T03:28:03.249Z,100.00
2023-05-15T03:32:06.304Z,100.00
2023-05-15T03:36:09.144Z,100.00
2023-05-15T03:40:14.888Z,100.00
2023-05-15T03:44:17.515Z,100.00
2023-05-15T03:48:20.191Z,100.00
2023-05-15T03:52:22.892Z,100.00
2023-05-15T03:56:26.943Z,100.00
2023-05-15T04:00:29.589Z,98.75
2023-05-15T04:04:32.199Z,100.00
2023-05-15T04:08:34.845Z,100.00
2023-05-15T04:12:38.809Z,100.00
2023-05-15T04:16:41.484Z,100.00
2023-05-15T04:20:44.133Z,100.00
2023-05-15T04:24:46.766Z,100.00
2023-05-15T04:29:02.773Z,100.00
2023-05-15T04:33:06.651Z,100.00
2023-05-15T04:37:09.285Z,100.00
2023-05-15T04:41:12.035Z,100.00
2023-05-15T04:45:16.022Z,100.00
2023-05-15T04:49:18.684Z,100.00
2023-05-15T04:53:21.306Z,100.00
2023-05-15T04:57:23.996Z,99.97
2023-05-15T05:01:28.066Z,100.00
2023-05-15T05:05:30.707Z,100.00
2023-05-15T05:09:33.332Z,99.26
2023-05-15T05:13:36.103Z,95.39
2023-05-15T05:17:40.106Z,74.03
2023-05-15T05:21:42.750Z,65.88
2023-05-15T05:25:45.380Z,66.68
2023-05-15T05:29:47.993Z,60.79
2023-05-15T05:33:52.834Z,59.95
2023-05-15T05:37:55.878Z,56.28
2023-05-15T05:41:58.542Z,53.08
2023-05-15T05:46:01.180Z,56.22
2023-05-15T05:50:05.786Z,52.42
2023-05-15T05:54:08.422Z,60.03
2023-05-15T05:58:24.013Z,53.87
2023-05-15T06:02:27.621Z,67.48
2023-05-15T06:06:31.700Z,54.16
2023-05-15T06:10:34.526Z,63.58
2023-05-15T06:14:37.135Z,57.74
2023-05-15T06:18:39.766Z,69.36
2023-05-15T06:22:43.761Z,70.77
2023-05-15T06:26:46.408Z,75.05
2023-05-15T06:30:49.086Z,75.90
2023-05-15T06:34:52.049Z,74.34
2023-05-15T06:38:56.018Z,77.71
2023-05-15T06:42:58.771Z,75.66
2023-05-15T06:47:01.472Z,74.36
2023-05-15T06:51:04.557Z,75.16
2023-05-15T06:55:09.057Z,72.30
2023-05-15T06:59:11.677Z,72.72
2023-05-15T07:03:16.692Z,73.66
2023-05-15T07:07:19.365Z,72.25
2023-05-15T07:11:23.371Z,68.78
2023-05-15T07:15:26.218Z,67.52
2023-05-15T07:19:28.899Z,65.11
2023-05-15T07:23:31.374Z,67.09
2023-05-15T07:27:35.411Z,66.98
2023-05-15T07:31:38.414Z,72.29
2023-05-15T07:35:41.089Z,66.34
2023-05-15T07:39:43.702Z,66.85
2023-05-15T07:43:47.685Z,67.73
2023-05-15T07:47:50.818Z,65.53
2023-05-15T07:51:53.464Z,70.17
2023-05-15T07:55:56.448Z,64.20
2023-05-15T08:00:00.945Z,63.56
2023-05-15T08:04:04.598Z,63.96
2023-05-15T08:08:07.321Z,65.46
2023-05-15T08:12:20.633Z,65.23
2023-05-15T08:16:24.656Z,64.23
2023-05-15T08:20:27.329Z,66.30
2023-05-15T08:24:29.965Z,63.32
2023-05-15T08:28:32.569Z,66.04
2023-05-15T08:32:36.608Z,65.56
2023-05-15T08:36:39.676Z,66.73
2023-05-15T08:40:43.011Z,64.51
2023-05-15T08:44:45.680Z,63.12
2023-05-15T08:48:50.504Z,65.73
2023-05-15T08:52:53.314Z,62.67
2023-05-15T08:56:55.777Z,64.85
2023-05-15T09:00:58.757Z,66.17
2023-05-15T09:05:03.370Z,66.67
2023-05-15T09:09:06.401Z,68.11
2023-05-15T09:13:09.229Z,68.03
2023-05-15T09:17:12.272Z,69.79
2023-05-15T09:21:26.595Z,70.20
2023-05-15T09:25:37.476Z,74.55
2023-05-15T09:29:40.422Z,72.52
2023-05-15T09:33:43.301Z,80.85
2023-05-15T09:37:47.267Z,75.73
2023-05-15T09:41:49.932Z,75.41
2023-05-15T09:45:52.664Z,73.82
2023-05-15T09:49:56.050Z,74.31
2023-05-15T09:54:00.218Z,74.92
2023-05-15T09:58:07.296Z,74.13
2023-05-15T10:02:09.876Z,72.98
2023-05-15T10:06:19.206Z,68.16
2023-05-15T10:10:23.797Z,67.55
2023-05-15T10:14:27.810Z,68.99
2023-05-15T10:18:31.643Z,70.83
2023-05-15T10:22:38.223Z,71.20
2023-05-15T10:26:43.341Z,71.81
2023-05-15T10:30:46.911Z,72.94
2023-05-15T10:34:49.966Z,75.08
2023-05-15T10:38:53.297Z,76.17
2023-05-15T10:42:59.061Z,75.41
2023-05-15T10:47:02.151Z,74.46
2023-05-15T10:51:04.978Z,74.20
2023-05-15T10:55:09.386Z,75.40
2023-05-15T10:59:13.453Z,75.56
2023-05-15T11:03:16.598Z,75.53
2023-05-15T11:07:20.234Z,78.63
2023-05-15T11:11:57.119Z,72.06
2023-05-15T11:16:01.379Z,71.34
2023-05-15T11:20:05.177Z,70.27
2023-05-15T11:24:08.211Z,65.20
2023-05-15T11:28:22.274Z,72.37
2023-05-15T11:32:49.156Z,66.34
2023-05-15T11:36:51.833Z,63.44
2023-05-15T11:40:56.590Z,61.18
2023-05-15T11:44:59.204Z,56.89
2023-05-15T11:49:03.347Z,59.25
2023-05-15T11:53:07.156Z,58.06
2023-05-15T11:57:09.745Z,53.63
2023-05-15T12:01:12.467Z,56.32
2023-05-15T12:05:16.426Z,49.50
2023-05-15T12:09:22.492Z,52.36
2023-05-15T12:13:25.882Z,54.47
2023-05-15T12:17:28.757Z,57.29
2023-05-15T12:21:34.292Z,63.10
2023-05-15T12:25:38.498Z,57.45
2023-05-15T12:29:41.751Z,55.76
2023-05-15T12:33:44.512Z,59.69
2023-05-15T12:37:48.511Z,61.13
2023-05-15T12:41:54.218Z,63.46
2023-05-15T12:45:57.486Z,63.54
2023-05-15T12:50:00.898Z,61.54
2023-05-15T12:54:04.932Z,66.06
2023-05-15T12:58:08.908Z,65.09
2023-05-15T13:02:12.278Z,61.97
2023-05-15T13:06:17.740Z,60.88
2023-05-15T13:10:24.074Z,62.52
2023-05-15T13:14:29.695Z,62.72
2023-05-15T13:18:32.329Z,59.58
2023-05-15T13:22:35.040Z,61.95
2023-05-15T13:26:39.062Z,64.19
2023-05-15T13:30:42.343Z,65.10
2023-05-15T13:34:45.003Z,60.25
2023-05-15T13:38:47.654Z,56.44
2023-05-15T13:42:51.632Z,57.93
2023-05-15T13:46:54.291Z,56.32
2023-05-15T13:50:56.981Z,59.37
2023-05-15T13:54:59.655Z,59.33
2023-05-15T13:59:04.088Z,58.03
2023-05-15T14:03:06.905Z,56.94
2023-05-15T14:07:09.536Z,57.34
2023-05-15T14:11:12.345Z,63.57
2023-05-15T14:15:16.354Z,56.03
2023-05-15T14:19:19.066Z,56.74
2023-05-15T14:23:21.762Z,60.06
2023-05-15T14:27:24.444Z,58.55
2023-05-15T14:31:28.499Z,60.09
2023-05-15T14:35:31.161Z,60.07
2023-05-15T14:39:33.902Z,61.68
2023-05-15T14:43:36.540Z,60.27
2023-05-15T14:47:40.609Z,61.89
2023-05-15T14:51:43.326Z,66.92
2023-05-15T14:55:46.092Z,65.94
2023-05-15T14:59:48.710Z,65.80
2023-05-15T15:03:52.873Z,65.21
2023-05-15T15:08:00.451Z,62.45
2023-05-15T15:12:03.068Z,62.36
2023-05-15T15:16:06.548Z,58.87
2023-05-15T15:20:12.218Z,58.73
2023-05-15T15:24:14.899Z,62.15
2023-05-15T15:28:17.570Z,54.19
2023-05-15T15:32:20.002Z,53.06
2023-05-15T15:36:24.762Z,53.10
2023-05-15T15:40:29.777Z,54.77
2023-05-15T15:44:34.296Z,59.07
2023-05-15T15:48:37.354Z,55.87
2023-05-15T15:52:41.497Z,55.33
2023-05-15T15:56:44.170Z,61.06
2023-05-15T16:00:46.997Z,58.70
2023-05-15T16:04:49.445Z,57.83
2023-05-15T16:08:53.552Z,56.15
2023-05-15T16:12:56.922Z,60.48
2023-05-15T16:16:59.613Z,65.43
2023-05-15T16:21:02.331Z,60.73
2023-05-15T16:25:07.209Z,58.87
2023-05-15T16:29:10.104Z,59.02
2023-05-15T16:33:12.660Z,60.76
2023-05-15T16:37:16.380Z,59.49
2023-05-15T16:41:21.463Z,62.74
2023-05-15T16:45:24.253Z,68.07
2023-05-15T16:49:26.882Z,61.66
2023-05-15T16:53:30.063Z,66.25
2023-05-15T16:57:34.249Z,66.72
2023-05-15T17:01:37.249Z,65.50
2023-05-15T17:05:39.931Z,70.13
2023-05-15T17:09:44.499Z,74.52
2023-05-15T17:13:48.541Z,75.42
2023-05-15T17:17:51.272Z,74.04
2023-05-15T17:21:53.904Z,74.27
2023-05-15T17:25:56.519Z,75.83
2023-05-15T17:30:00.837Z,78.07
2023-05-15T17:34:03.435Z,75.72
2023-05-15T17:38:06.160Z,72.79
2023-05-15T17:42:08.823Z,76.99
2023-05-15T17:46:12.831Z,76.78
2023-05-15T17:50:15.613Z,71.85
2023-05-15T17:54:18.551Z,69.36
2023-05-15T17:58:21.853Z,68.95
2023-05-15T18:02:25.937Z,69.16
2023-05-15T18:06:29.136Z,70.33
2023-05-15T18:10:32.150Z,72.26
2023-05-15T18:14:34.838Z,71.04
2023-05-15T18:18:38.849Z,71.71
2023-05-15T18:22:43.295Z,75.99
2023-05-15T18:26:45.946Z,74.41
2023-05-15T18:30:48.681Z,74.84
2023-05-15T18:34:52.689Z,78.60
2023-05-15T18:38:55.315Z,78.73
2023-05-15T18:42:58.118Z,81.56
2023-05-15T18:47:00.870Z,84.02
2023-05-15T18:51:05.240Z,81.07
2023-05-15T18:55:09.652Z,82.38
2023-05-15T18:59:12.451Z,78.81
2023-05-15T19:03:15.879Z,83.24
2023-05-15T19:07:20.038Z,87.90
2023-05-15T19:11:22.678Z,86.67
2023-05-15T19:15:25.853Z,91.26
2023-05-15T19:19:28.473Z,87.40
2023-05-15T19:23:32.513Z,89.46
2023-05-15T19:27:35.686Z,91.75
2023-05-15T19:31:38.688Z,93.51
2023-05-15T19:35:44.286Z,84.05
2023-05-15T19:39:48.302Z,75.30
2023-05-15T19:43:51.347Z,74.28
2023-05-15T19:47:54.217Z,79.26
2023-05-15T19:51:56.904Z,75.25
2023-05-15T19:56:00.948Z,76.55
2023-05-15T20:00:04.788Z,82.78
2023-05-15T20:04:07.574Z,78.62
2023-05-15T20:08:10.932Z,76.71
2023-05-15T20:12:14.917Z,78.12
2023-05-15T20:16:18.248Z,80.76
2023-05-15T20:20:21.437Z,79.59
2023-05-15T20:24:25.787Z,83.63
2023-05-15T20:28:30.208Z,84.96
2023-05-15T20:32:32.969Z,84.46
2023-05-15T20:36:35.933Z,86.12
2023-05-15T20:40:38.760Z,82.51
2023-05-15T20:44:42.716Z,80.18
2023-05-15T20:48:45.466Z,85.27
2023-05-15T20:52:48.090Z,79.92
2023-05-15T20:56:50.741Z,81.92
2023-05-15T21:00:54.732Z,82.61
2023-05-15T21:04:57.354Z,85.41
2023-05-15T21:08:59.952Z,86.21
2023-05-15T21:13:02.577Z,82.11
2023-05-15T21:17:06.837Z,86.76
2023-05-15T21:21:09.489Z,83.10
2023-05-15T21:25:12.466Z,82.74
2023-05-15T21:29:15.232Z,84.33
2023-05-15T21:33:19.173Z,86.31
2023-05-15T21:37:21.789Z,85.21
2023-05-15T21:41:25.903Z,85.44
2023-05-15T21:45:28.522Z,86.38
2023-05-15T21:49:32.478Z,86.60
2023-05-15T21:53:35.375Z,83.96
2023-05-15T21:57:38.019Z,84.47
2023-05-15T22:01:41.492Z,87.52
2023-05-15T22:05:45.936Z,86.64
2023-05-15T22:09:48.678Z,84.11
2023-05-15T22:13:51.333Z,85.17
2023-05-15T22:17:54.028Z,86.11
2023-05-15T22:21:58.160Z,87.68
2023-05-15T22:26:00.922Z,86.65
2023-05-15T22:30:03.684Z,87.24
2023-05-15T22:34:06.320Z,83.91
2023-05-15T22:38:10.294Z,85.62
2023-05-15T22:42:12.987Z,87.79
2023-05-15T22:46:16.658Z,88.18
2023-05-15T22:50:19.309Z,89.93
2023-05-15T22:54:23.722Z,90.03
2023-05-15T22:58:26.490Z,89.51
2023-05-15T23:02:29.154Z,90.61
2023-05-15T23:06:32.354Z,93.98
2023-05-15T23:10:36.510Z,94.31
2023-05-15T23:14:39.136Z,92.68
2023-05-15T23:18:41.876Z,93.42
2023-05-15T23:22:44.594Z,93.51
2023-05-15T23:26:48.669Z,91.95
2023-05-15T23:30:53.457Z,91.04
2023-05-15T23:34:58.280Z,94.68
2023-05-15T23:39:00.872Z,91.70
2023-05-15T23:43:05.111Z,94.67
2023-05-15T23:47:07.892Z,94.82
2023-05-15T23:51:10.980Z,94.87
2023-05-15T23:55:13.965Z,96.15
2023-05-15T23:59:18.001Z,93.66
